EDT,Max TemperatureF,Mean TemperatureF,Min TemperatureF,Max Dew PointF,MeanDew PointF,Min DewpointF,Max Humidity, Mean Humidity, Min Humidity, Max Sea Level PressureIn, Mean Sea Level PressureIn, Min Sea Level PressureIn, Max VisibilityMiles, Mean VisibilityMiles, Min VisibilityMiles, Max Wind SpeedMPH, Mean Wind SpeedMPH, Max Gust SpeedMPH,PrecipitationIn, CloudCover, Events, WindDirDegrees
2013-9-1,83,77,71,70,69,66,93,76,58,29.86,29.82,29.77,10,9,4,12,4,16,0.00,3,,197
2013-9-2,84,76,67,72,68,63,93,78,63,29.86,29.81,29.76,10,7,2,13,4,17,0.00,3,Thunderstorm,245
2013-9-3,72,64,55,63,56,53,90,72,53,30.07,29.98,29.87,10,10,8,13,5,17,0.00,6,,327
2013-9-4,78,64,50,60,53,48,96,72,48,30.16,30.10,30.07,10,5,0,10,3,14,0.00,3,Fog,216
2013-9-5,79,68,56,63,56,47,90,67,43,30.22,30.15,30.10,10,10,9,13,4,17,0.00,1,,333
2013-9-6,75,61,47,52,47,42,93,63,33,30.28,30.21,30.14,10,10,8,10,1,14,0.00,0,,67
2013-9-7,80,64,47,63,54,45,93,69,45,30.13,30.06,29.96,10,10,10,9,2,26,0.00,0,,221
2013-9-8,82,73,63,68,64,60,87,75,62,30.04,29.98,29.93,10,8,5,12,3,16,0.00,4,,358
2013-9-9,87,74,60,70,64,57,90,73,55,30.08,30.04,29.99,10,9,7,13,4,18,0.00,2,,191
2013-9-10,90,80,70,74,71,67,90,75,59,30.13,30.09,30.04,9,7,5,13,6,16,0.00,1,,200
2013-9-11,90,81,72,72,70,67,93,76,59,30.16,30.09,30.01,10,7,2,13,4,18,0.00,1,Thunderstorm,219
2013-9-12,75,69,62,70,67,61,93,84,74,29.99,29.93,29.84,10,6,1,24,5,32,0.18,4,Rain,263
2013-9-13,68,60,52,59,52,46,90,75,60,30.08,29.96,29.88,10,10,10,17,8,23,0.00,6,Rain-Thunderstorm,335
2013-9-14,68,56,44,48,44,41,93,67,40,30.19,30.14,30.08,10,10,10,12,2,17,0.00,0,,14
2013-9-15,71,57,42,58,49,40,93,70,47,30.19,30.12,30.06,10,10,10,12,2,15,0.02,1,,205
2013-9-16,72,63,53,58,54,48,93,73,53,30.31,30.19,30.09,10,7,0,9,3,12,0.12,6,Fog-Rain,356
2013-9-17,72,60,48,52,49,46,93,70,47,30.38,30.33,30.23,10,7,0,8,2,12,0.00,3,Fog,57
2013-9-18,70,60,50,61,55,47,93,78,63,30.22,30.16,30.11,10,9,4,12,4,14,0.00,4,,170
2013-9-19,71,66,61,65,62,59,93,86,78,30.14,30.10,30.01,6,3,1,10,4,14,0.00,8,,161
2013-9-20,84,76,67,68,66,64,93,76,58,30.05,29.95,29.81,10,6,1,16,6,22,0.00,6,,181
2013-9-21,71,62,53,66,61,52,93,75,57,29.83,29.74,29.70,10,6,1,15,4,22,0.96,6,Rain,245
2013-9-22,64,56,47,52,47,43,93,71,48,30.04,29.93,29.84,10,8,0,13,4,15,0.00,3,Fog,358
2013-9-23,61,52,43,46,42,39,92,72,51,30.17,30.12,30.05,10,10,7,9,3,14,0.00,4,,56
2013-9-24,69,54,38,49,44,37,93,69,45,30.14,30.06,29.97,10,8,2,10,2,14,0.00,0,,83
2013-9-25,74,60,45,58,50,42,93,70,46,29.98,29.93,29.88,10,8,1,7,1,10,0.00,0,,289
2013-9-26,78,64,50,55,50,45,93,63,33,30.10,30.01,29.93,10,9,1,9,2,13,0.00,0,,38
2013-9-27,76,61,46,53,49,43,93,68,43,30.20,30.15,30.10,10,9,2,10,1,14,0.00,0,,39
2013-9-28,77,63,48,56,52,45,93,70,46,30.24,30.17,30.12,10,8,2,10,2,15,0.00,0,,141
2013-9-29,75,65,54,60,56,51,93,75,57,30.11,30.06,30.01,10,9,5,10,4,14,0.00,2,,166
2013-9-30,72,64,56,60,57,54,93,77,61,30.05,30.02,29.98,10,7,1,9,2,16,T,6,Rain,178